createdAt,value
2018-09-30T00:01:27.533Z,18.93
2018-09-30T00:05:30.270Z,22.37
2018-09-30T00:09:32.987Z,17.03
2018-09-30T00:13:35.671Z,21.23
2018-09-30T00:17:38.398Z,17.80
2018-09-30T00:21:41.064Z,20.67
2018-09-30T00:25:49.396Z,24.67
2018-09-30T00:29:52.150Z,20.97
2018-09-30T00:34:00.537Z,22.60
2018-09-30T00:38:03.223Z,19.07
2018-09-30T00:42:06.438Z,18.13
2018-09-30T00:46:09.209Z,25.40
2018-09-30T00:50:11.977Z,26.20
2018-09-30T00:54:15.015Z,15.17
2018-09-30T00:58:17.679Z,19.93
2018-09-30T01:02:20.400Z,21.17
2018-09-30T01:06:23.271Z,17.53
2018-09-30T01:10:25.973Z,21.00
2018-09-30T01:14:28.704Z,18.10
2018-09-30T01:18:31.446Z,17.97
2018-09-30T01:22:34.158Z,17.10
2018-09-30T01:26:36.904Z,17.80
2018-09-30T01:30:39.665Z,24.80
2018-09-30T01:34:42.421Z,18.20
2018-09-30T01:38:45.250Z,17.53
2018-09-30T01:42:48.108Z,15.80
2018-09-30T01:46:50.781Z,18.47
2018-09-30T01:50:53.579Z,16.03
2018-09-30T01:54:56.224Z,15.77
2018-09-30T01:58:59.263Z,18.43
2018-09-30T02:03:02.015Z,21.10
2018-09-30T02:07:04.718Z,17.67
2018-09-30T02:11:07.465Z,17.87
2018-09-30T02:15:10.170Z,19.63
2018-09-30T02:19:12.994Z,16.67
2018-09-30T02:23:15.720Z,22.27
2018-09-30T02:27:18.469Z,13.80
2018-09-30T02:31:21.177Z,18.00
2018-09-30T02:35:23.962Z,15.77
2018-09-30T02:39:26.716Z,16.37
2018-09-30T02:43:29.818Z,20.30
2018-09-30T02:47:32.671Z,16.73
2018-09-30T02:51:35.427Z,14.33
2018-09-30T02:55:38.979Z,15.67
2018-09-30T02:59:41.725Z,15.33
2018-09-30T03:03:44.444Z,14.90
2018-09-30T03:07:52.891Z,17.87
2018-09-30T03:11:55.665Z,12.10
2018-09-30T03:15:58.363Z,16.00
2018-09-30T03:20:01.187Z,12.93
2018-09-30T03:24:03.947Z,17.13
2018-09-30T03:28:06.707Z,14.80
2018-09-30T03:32:09.463Z,15.10
2018-09-30T03:36:12.207Z,17.80
2018-09-30T03:40:14.962Z,12.83
2018-09-30T03:44:17.711Z,9.13
2018-09-30T03:48:20.491Z,18.90
2018-09-30T03:52:23.195Z,11.70
2018-09-30T03:56:25.937Z,15.40
2018-09-30T04:00:28.673Z,17.30
2018-09-30T04:04:31.366Z,10.10
2018-09-30T04:08:34.101Z,11.13
2018-09-30T04:12:36.915Z,11.23
2018-09-30T04:16:39.632Z,14.00
2018-09-30T04:20:42.374Z,16.77
2018-09-30T04:24:45.107Z,14.70
2018-09-30T04:28:47.793Z,14.13
2018-09-30T04:32:50.444Z,11.90
2018-09-30T04:36:53.390Z,10.27
2018-09-30T04:40:56.139Z,13.27
2018-09-30T04:44:58.860Z,14.87
2018-09-30T04:49:01.596Z,12.90
2018-09-30T04:53:04.305Z,13.33
2018-09-30T04:57:07.078Z,18.23
2018-09-30T05:01:09.926Z,10.93
2018-09-30T05:05:19.366Z,15.40
2018-09-30T05:09:22.096Z,16.30
2018-09-30T05:13:24.829Z,16.80
2018-09-30T05:17:27.720Z,11.80
2018-09-30T05:21:30.525Z,13.10
2018-09-30T05:25:33.365Z,14.03
2018-09-30T05:29:36.079Z,14.43
2018-09-30T05:33:38.841Z,14.53
2018-09-30T05:37:41.580Z,14.37
2018-09-30T05:41:44.297Z,11.27
2018-09-30T05:45:47.049Z,13.37
2018-09-30T05:49:49.831Z,16.17
2018-09-30T05:53:52.547Z,15.70
2018-09-30T05:57:55.472Z,16.23
2018-09-30T06:01:58.245Z,13.00
2018-09-30T06:06:00.984Z,17.57
2018-09-30T06:10:03.838Z,15.70
2018-09-30T06:14:06.759Z,12.97
2018-09-30T06:18:09.323Z,9.90
2018-09-30T06:22:12.074Z,8.37
2018-09-30T06:26:14.915Z,11.60
2018-09-30T06:30:17.707Z,12.40
2018-09-30T06:34:20.499Z,15.53
2018-09-30T06:38:23.231Z,11.70
2018-09-30T06:42:26.021Z,10.17
2018-09-30T06:46:28.781Z,15.70
2018-09-30T06:50:32.100Z,9.83
2018-09-30T06:54:34.897Z,7.83
2018-09-30T06:58:37.658Z,10.47
2018-09-30T07:02:40.404Z,14.30
2018-09-30T07:06:43.177Z,11.20
2018-09-30T07:10:45.995Z,9.73
2018-09-30T07:14:48.704Z,9.73
2018-09-30T07:18:52.563Z,8.50
2018-09-30T07:22:55.319Z,12.43
2018-09-30T07:26:58.206Z,9.23
2018-09-30T07:31:01.023Z,12.17
2018-09-30T07:35:03.911Z,17.60
2018-09-30T07:39:08.241Z,9.10
2018-09-30T07:43:11.034Z,12.73
2018-09-30T07:47:13.807Z,11.33
2018-09-30T07:51:16.488Z,11.63
2018-09-30T07:55:19.403Z,11.10
2018-09-30T07:59:22.179Z,10.93
2018-09-30T08:03:25.099Z,12.13
2018-09-30T08:07:27.893Z,14.43
2018-09-30T08:11:30.764Z,10.60
2018-09-30T08:15:33.515Z,7.83
2018-09-30T08:19:37.387Z,16.63
2018-09-30T08:23:40.223Z,8.13
2018-09-30T08:27:43.118Z,8.97
2018-09-30T08:31:45.972Z,7.87
2018-09-30T08:35:54.192Z,9.50
2018-09-30T08:39:57.112Z,12.47
2018-09-30T08:43:59.903Z,10.77
2018-09-30T08:48:02.700Z,8.90
2018-09-30T08:52:05.557Z,9.97
2018-09-30T08:56:08.442Z,9.60
2018-09-30T09:00:11.281Z,8.20
2018-09-30T09:04:14.064Z,9.23
2018-09-30T09:08:16.995Z,9.47
2018-09-30T09:12:20.756Z,8.70
2018-09-30T09:16:23.557Z,9.53
2018-09-30T09:20:26.883Z,11.37
2018-09-30T09:24:29.683Z,10.17
2018-09-30T09:28:32.501Z,10.57
2018-09-30T09:32:37.571Z,8.27
2018-09-30T09:36:40.403Z,9.10
2018-09-30T09:40:43.226Z,11.43
2018-09-30T09:44:46.141Z,9.53
2018-09-30T09:48:48.955Z,9.07
2018-09-30T09:52:51.875Z,8.83
2018-09-30T09:56:54.652Z,10.27
2018-09-30T10:01:02.025Z,13.70
2018-09-30T10:05:04.920Z,14.20
2018-09-30T10:09:07.776Z,12.00
2018-09-30T10:13:10.611Z,9.70
2018-09-30T10:17:13.327Z,9.07
2018-09-30T10:21:16.081Z,10.03
2018-09-30T10:25:18.910Z,12.80
2018-09-30T10:29:21.659Z,12.07
2018-09-30T10:33:25.175Z,9.33
2018-09-30T10:37:28.774Z,9.83
2018-09-30T10:41:31.582Z,11.00
2018-09-30T10:45:34.476Z,11.10
2018-09-30T10:49:37.391Z,9.60
2018-09-30T10:53:40.161Z,8.63
2018-09-30T10:57:43.981Z,10.17
2018-09-30T11:01:46.899Z,7.37
2018-09-30T11:05:49.788Z,11.13
2018-09-30T11:09:52.674Z,8.80
2018-09-30T11:13:55.371Z,10.20
2018-09-30T11:17:58.220Z,30.67
2018-09-30T11:22:01.000Z,14.03
2018-09-30T11:26:03.854Z,12.17
2018-09-30T11:30:06.755Z,9.40
2018-09-30T11:34:09.588Z,11.20
2018-09-30T11:38:12.371Z,9.03
2018-09-30T11:42:15.288Z,8.30
2018-09-30T11:46:18.091Z,8.97
2018-09-30T11:50:21.495Z,11.20
2018-09-30T11:54:24.289Z,7.47
2018-09-30T11:58:27.167Z,6.63
2018-09-30T12:02:30.024Z,7.20
2018-09-30T12:06:33.515Z,9.43
2018-09-30T12:10:36.332Z,10.97
2018-09-30T12:14:39.118Z,7.13
2018-09-30T12:18:41.874Z,11.20
2018-09-30T12:22:44.650Z,7.40
2018-09-30T12:26:47.521Z,9.10
2018-09-30T12:30:50.449Z,10.77
2018-09-30T12:34:53.351Z,7.53
2018-09-30T12:38:56.139Z,7.87
2018-09-30T12:42:59.029Z,10.33
2018-09-30T12:47:01.910Z,8.70
2018-09-30T12:51:04.806Z,6.20
2018-09-30T12:55:07.695Z,9.83
2018-09-30T12:59:10.512Z,15.13
2018-09-30T13:03:13.233Z,12.33
2018-09-30T13:07:16.032Z,7.30
2018-09-30T13:11:18.830Z,6.53
2018-09-30T13:15:21.606Z,9.37
2018-09-30T13:19:24.479Z,10.73
2018-09-30T13:23:27.270Z,7.73
2018-09-30T13:27:30.026Z,12.20
2018-09-30T13:31:33.451Z,11.97
2018-09-30T13:35:36.224Z,9.63
2018-09-30T13:39:38.990Z,7.97
2018-09-30T13:43:41.817Z,7.93
2018-09-30T13:47:44.575Z,7.50
2018-09-30T13:51:47.559Z,8.33
2018-09-30T13:55:50.455Z,11.00
2018-09-30T13:59:53.176Z,8.23
2018-09-30T14:03:55.914Z,13.17
2018-09-30T14:07:58.703Z,12.40
2018-09-30T14:12:01.587Z,13.40
2018-09-30T14:16:04.317Z,14.07
2018-09-30T14:20:07.308Z,10.07
2018-09-30T14:24:10.102Z,7.80
2018-09-30T14:28:12.850Z,11.10
2018-09-30T14:32:15.601Z,10.10
2018-09-30T14:36:18.440Z,11.57
2018-09-30T14:40:22.229Z,12.10
2018-09-30T14:44:25.018Z,9.43
2018-09-30T14:48:27.935Z,10.77
2018-09-30T14:52:30.733Z,10.93
2018-09-30T14:56:34.423Z,11.60
2018-09-30T15:00:37.212Z,7.80
2018-09-30T15:04:40.000Z,12.07
2018-09-30T15:08:42.830Z,13.03
2018-09-30T15:12:45.626Z,11.33
2018-09-30T15:16:54.947Z,11.00
2018-09-30T15:20:57.725Z,10.47
2018-09-30T15:25:00.670Z,9.80
2018-09-30T15:29:04.114Z,7.80
2018-09-30T15:33:07.083Z,8.80
2018-09-30T15:37:10.033Z,10.70
2018-09-30T15:41:12.713Z,8.10
2018-09-30T15:45:15.450Z,8.77
2018-09-30T15:49:18.280Z,11.43
2018-09-30T15:53:21.103Z,11.53
2018-09-30T15:57:23.903Z,12.70
2018-09-30T16:01:26.644Z,10.63
2018-09-30T16:05:29.491Z,12.80
2018-09-30T16:09:32.249Z,13.87
2018-09-30T16:13:34.922Z,9.43
2018-09-30T16:17:37.782Z,15.47
2018-09-30T16:21:40.477Z,17.53
2018-09-30T16:25:43.325Z,16.00
2018-09-30T16:29:46.818Z,13.97
2018-09-30T16:33:49.650Z,16.60
2018-09-30T16:37:52.584Z,12.77
2018-09-30T16:41:55.520Z,19.67
2018-09-30T16:45:58.408Z,14.23
2018-09-30T16:50:02.716Z,18.53
2018-09-30T16:54:06.532Z,18.57
2018-09-30T16:58:10.247Z,17.60
2018-09-30T17:02:13.969Z,20.47
2018-09-30T17:06:20.826Z,17.40
2018-09-30T17:10:24.202Z,22.43
2018-09-30T17:14:27.352Z,18.50
2018-09-30T17:18:30.307Z,16.27
2018-09-30T17:22:33.137Z,15.27
2018-09-30T17:26:35.981Z,17.30
2018-09-30T17:30:39.389Z,16.67
2018-09-30T17:34:42.447Z,19.95
2018-09-30T17:38:46.443Z,14.40
2018-09-30T17:42:49.294Z,18.47
2018-09-30T17:46:53.247Z,18.40
2018-09-30T17:50:56.063Z,20.90
2018-09-30T17:54:58.873Z,17.53
2018-09-30T17:59:01.872Z,20.03
2018-09-30T18:03:04.764Z,19.43
2018-09-30T18:07:07.629Z,24.53
2018-09-30T18:11:10.686Z,25.07
2018-09-30T18:15:13.641Z,19.70
2018-09-30T18:19:16.571Z,19.30
2018-09-30T18:23:19.549Z,22.43
2018-09-30T18:27:22.317Z,22.37
2018-09-30T18:31:25.153Z,23.17
2018-09-30T18:35:28.301Z,21.30
2018-09-30T18:39:31.266Z,17.90
2018-09-30T18:43:34.321Z,20.43
2018-09-30T18:47:37.278Z,22.10
2018-09-30T18:51:40.364Z,19.20
2018-09-30T18:55:43.906Z,20.40
2018-09-30T18:59:46.772Z,19.83
2018-09-30T19:03:49.595Z,22.17
2018-09-30T19:07:52.425Z,20.67
2018-09-30T19:11:55.406Z,20.03
2018-09-30T19:15:58.640Z,21.37
2018-09-30T19:20:01.581Z,22.30
2018-09-30T19:24:05.971Z,16.67
2018-09-30T19:28:08.812Z,19.93
2018-09-30T19:32:11.825Z,21.67
2018-09-30T19:36:14.691Z,20.50
2018-09-30T19:40:17.721Z,20.70
2018-09-30T19:44:20.645Z,17.33
2018-09-30T19:48:23.742Z,20.90
2018-09-30T19:52:26.324Z,19.73
2018-09-30T19:56:30.394Z,25.93
2018-09-30T20:00:33.230Z,24.80
2018-09-30T20:04:36.144Z,22.30
2018-09-30T20:08:38.874Z,18.17
2018-09-30T20:12:41.894Z,21.90
2018-09-30T20:16:44.652Z,20.27
2018-09-30T20:20:47.635Z,17.97
2018-09-30T20:24:50.383Z,21.13
2018-09-30T20:28:53.886Z,19.00
2018-09-30T20:32:56.779Z,24.30
2018-09-30T20:36:59.926Z,20.83
2018-09-30T20:41:03.722Z,16.77
2018-09-30T20:45:08.286Z,20.50
2018-09-30T20:49:11.683Z,24.03
2018-09-30T20:53:14.919Z,18.57
2018-09-30T20:57:17.689Z,18.57
2018-09-30T21:01:20.701Z,21.57
2018-09-30T21:05:33.540Z,18.83
2018-09-30T21:09:36.809Z,20.70
2018-09-30T21:13:39.848Z,16.40
2018-09-30T21:17:42.961Z,19.07
2018-09-30T21:21:45.705Z,15.90
2018-09-30T21:25:48.477Z,18.60
2018-09-30T21:29:51.488Z,16.97
2018-09-30T21:33:54.289Z,17.67
2018-09-30T21:37:57.095Z,17.70
2018-09-30T21:41:59.854Z,23.00
2018-09-30T21:46:02.629Z,18.48
2018-09-30T21:50:05.460Z,21.57
2018-09-30T21:54:08.306Z,15.77
2018-09-30T21:58:11.308Z,17.27
2018-09-30T22:02:14.035Z,20.50
2018-09-30T22:06:16.861Z,18.00
2018-09-30T22:10:19.673Z,23.53
2018-09-30T22:14:22.437Z,20.80
2018-09-30T22:18:25.184Z,18.07
2018-09-30T22:22:27.968Z,15.60
2018-09-30T22:26:30.777Z,17.20
2018-09-30T22:30:33.990Z,17.10
2018-09-30T22:34:36.692Z,19.13
2018-09-30T22:38:39.423Z,18.13
2018-09-30T22:42:42.158Z,15.50
2018-09-30T22:46:45.017Z,21.23
2018-09-30T22:50:47.808Z,14.20
2018-09-30T22:54:50.606Z,16.23
2018-09-30T22:58:53.359Z,18.90
2018-09-30T23:02:56.177Z,17.03
2018-09-30T23:06:59.006Z,19.27
2018-09-30T23:11:01.767Z,18.77
2018-09-30T23:15:04.693Z,16.07
2018-09-30T23:19:07.468Z,14.07
2018-09-30T23:23:10.205Z,15.20
2018-09-30T23:27:13.067Z,15.80
2018-09-30T23:31:15.752Z,14.47
2018-09-30T23:35:18.490Z,13.20
2018-09-30T23:39:21.265Z,20.83
2018-09-30T23:43:24.003Z,13.90
2018-09-30T23:47:27.038Z,22.83
2018-09-30T23:51:29.818Z,14.80
2018-09-30T23:55:32.666Z,12.40
2018-09-30T23:59:35.500Z,15.60
